Time;durP1;ratioP1;P1;durP2;ratioP2;P2;SDS_P1;SDS_P2;PMS_P1;PMS_P2;Temp;Humidity;BMP_temperature;BMP_pressure;BME280_temperature;BME280_humidity;BME280_pressure;Samples;Min_cycle;Max_cycle;Signal;HPM_P1;HPM_P2
2021/04/05 04:47:40;;;;;;;14.75;4.75;;;;;;;;;;6229217;23;20054;-82
2021/04/05 04:50:06;;;;;;;10.32;4.43;;;;;;;;;;6230946;23;20008;-83
2021/04/05 04:52:32;;;;;;;9.50;5.45;;;;;;;;;;6230518;23;20012;-82
2021/04/05 04:54:58;;;;;;;13.88;4.80;;;;;;;;;;6230468;23;20371;-82
2021/04/05 04:57:23;;;;;;;9.07;4.55;;;;;;;;;;6230566;23;20521;-82
2021/04/05 04:59:49;;;;;;;9.95;4.43;;;;;;;;;;6216881;23;20027;-83
2021/04/05 05:02:15;;;;;;;11.65;4.40;;;;;;;;;;6247393;23;20096;-82
2021/04/05 05:04:41;;;;;;;8.23;4.28;;;;;;;;;;6219685;23;20237;-82
2021/04/05 05:07:07;;;;;;;11.80;4.47;;;;;;;;;;6246208;23;20009;-83
2021/04/05 05:09:33;;;;;;;8.13;4.28;;;;;;;;;;6232946;23;20004;-83
2021/04/05 05:14:17;;;;;;;10.35;4.18;;;;;;;;;;5116574;27;20388;-83
2021/04/05 05:16:43;;;;;;;11.55;4.53;;;;;;;;;;5107461;28;20032;-83
2021/04/05 05:19:09;;;;;;;11.48;4.95;;;;;;;;;;5102226;28;20094;-83
2021/04/05 05:21:43;;;;;;;12.40;5.97;;;;;;;;;;5108188;28;20020;-82
2021/04/05 05:24:12;;;;;;;10.63;4.25;;;;;;;;;;5122524;28;20008;-82
2021/04/05 05:26:39;;;;;;;10.95;5.68;;;;;;;;;;5126731;28;20035;-82
2021/04/05 05:29:07;;;;;;;15.45;4.97;;;;;;;;;;5116210;28;20027;-83
2021/04/05 05:31:34;;;;;;;14.20;6.30;;;;;;;;;;5121876;28;20437;-83
2021/04/05 05:34:01;;;;;;;12.50;6.03;;;;;;;;;;5114067;28;20080;-83
2021/04/05 05:38:44;;;;;;;14.23;6.63;;;;;;;;;;5121890;27;20416;-82
2021/04/05 05:41:25;;;;;;;14.02;7.22;;;;;;;;;;5113373;28;20474;-82
2021/04/05 05:43:55;;;;;;;15.57;7.18;;;;;;;;;;5107340;28;20022;-82
2021/04/05 05:46:27;;;;;;;11.98;6.32;;;;;;;;;;5122238;28;20043;-81
2021/04/05 05:49:11;;;;;;;24.63;8.95;;;;;;;;;;5110277;28;20070;-81
2021/04/05 05:51:55;;;;;;;24.48;8.93;;;;;;;;;;5097452;28;20073;-82
2021/04/05 05:54:30;;;;;;;17.98;8.55;;;;;;;;;;5107060;28;20028;-81
2021/04/05 05:57:34;;;;;;;24.35;11.30;;;;;;;;;;5107053;28;20471;-81
2021/04/05 06:00:23;;;;;;;20.90;10.70;;;;;;;;;;5033581;28;20037;-81
2021/04/05 06:03:07;;;;;;;38.13;16.00;;;;;;;;;;5040478;28;20060;-81
2021/04/05 06:05:37;;;;;;;33.22;16.13;;;;;;;;;;5082370;28;20460;-81
2021/04/05 06:08:22;;;;;;;42.28;17.05;;;;;;;;;;5105057;28;20476;-82
2021/04/05 06:11:06;;;;;;;35.20;16.52;;;;;;;;;;5106339;28;20491;-81
2021/04/05 06:13:44;;;;;;;36.55;17.90;;;;;;;;;;5096736;28;20027;-81
2021/04/05 06:16:28;;;;;;;33.67;16.90;;;;;;;;;;5121026;28;20052;-82
2021/04/05 06:19:00;;;;;;;41.42;19.33;;;;;;;;;;5103221;28;20088;-81
2021/04/05 06:21:37;;;;;;;41.25;18.95;;;;;;;;;;5118303;28;20020;-81
2021/04/05 06:26:26;;;;;;;33.92;17.20;;;;;;;;;;5084522;28;20423;-81
2021/04/05 06:28:54;;;;;;;32.10;17.70;;;;;;;;;;5056607;28;20087;-81
2021/04/05 06:31:20;;;;;;;40.20;18.17;;;;;;;;;;5067208;28;20577;-81
2021/04/05 06:33:51;;;;;;;34.85;17.88;;;;;;;;;;5058820;28;20025;-81
2021/04/05 06:36:37;;;;;;;37.45;18.60;;;;;;;;;;5067138;28;20021;-81
2021/04/05 06:39:08;;;;;;;39.03;17.13;;;;;;;;;;5054151;28;20080;-81
2021/04/05 06:41:34;;;;;;;36.10;16.13;;;;;;;;;;5072615;28;20078;-82
2021/04/05 06:44:00;;;;;;;29.20;16.15;;;;;;;;;;5060874;28;20018;-81
2021/04/05 06:46:25;;;;;;;40.33;16.58;;;;;;;;;;5055144;28;20021;-82
2021/04/05 06:49:02;;;;;;;46.25;17.92;;;;;;;;;;5062281;28;20018;-81
2021/04/05 06:51:53;;;;;;;37.50;16.77;;;;;;;;;;5049930;28;20013;-81
2021/04/05 06:56:43;;;;;;;32.80;16.45;;;;;;;;;;5121149;27;20362;-81
2021/04/05 06:59:28;;;;;;;38.25;19.58;;;;;;;;;;5120327;28;20038;-81
2021/04/05 07:02:13;;;;;;;39.92;18.10;;;;;;;;;;5121291;28;20400;-81
2021/04/05 07:04:44;;;;;;;59.72;26.05;;;;;;;;;;5112129;28;20012;-81
2021/04/05 07:07:18;;;;;;;44.58;24.08;;;;;;;;;;5124309;28;20106;-82
2021/04/05 07:09:59;;;;;;;50.95;24.25;;;;;;;;;;5113172;28;20012;-81
2021/04/05 07:12:26;;;;;;;49.08;24.58;;;;;;;;;;5117144;28;20039;-81
2021/04/05 07:15:11;;;;;;;46.28;22.23;;;;;;;;;;5129379;27;20425;-82
2021/04/05 07:17:56;;;;;;;52.42;23.33;;;;;;;;;;5114341;28;20072;-81
2021/04/05 07:20:25;;;;;;;45.70;25.50;;;;;;;;;;5121185;28;20439;-81
2021/04/05 07:23:02;;;;;;;40.78;20.92;;;;;;;;;;5119505;27;20427;-81
2021/04/05 07:25:43;;;;;;;32.92;17.70;;;;;;;;;;5111287;28;20076;-82
2021/04/05 07:28:19;;;;;;;34.30;16.58;;;;;;;;;;5117997;28;20023;-81
2021/04/05 07:30:46;;;;;;;34.97;16.38;;;;;;;;;;5115641;28;20059;-81
2021/04/05 07:33:36;;;;;;;39.72;16.60;;;;;;;;;;5119068;27;20064;-81
2021/04/05 07:36:07;;;;;;;32.95;17.02;;;;;;;;;;5114931;28;20114;-81
2021/04/05 07:38:33;;;;;;;;;;;;;;;;;;5118778;28;20058;-81
2021/04/05 07:41:02;;;;;;;36.05;15.57;;;;;;;;;;5128972;28;19908;-82
2021/04/05 07:43:43;;;;;;;36.20;16.95;;;;;;;;;;5118965;28;20545;-82
2021/04/05 07:46:18;;;;;;;46.53;18.77;;;;;;;;;;5113578;28;20028;-82
2021/04/05 07:48:54;;;;;;;38.60;16.67;;;;;;;;;;5124161;28;20028;-82
2021/04/05 07:51:27;;;;;;;37.08;17.70;;;;;;;;;;5123133;28;20027;-81
2021/04/05 07:53:58;;;;;;;39.60;18.23;;;;;;;;;;5123541;28;20123;-81
2021/04/05 07:56:39;;;;;;;34.80;17.13;;;;;;;;;;5116833;28;20539;-81
2021/04/05 07:59:25;;;;;;;39.78;17.88;;;;;;;;;;5118765;28;20293;-81
2021/04/05 08:01:53;;;;;;;31.42;15.23;;;;;;;;;;5120909;28;20031;-82
2021/04/05 08:04:34;;;;;;;31.73;15.90;;;;;;;;;;5123223;28;20016;-82
2021/04/05 08:07:06;;;;;;;30.95;16.08;;;;;;;;;;5120151;28;20042;-81
2021/04/05 08:09:45;;;;;;;39.05;16.73;;;;;;;;;;5106360;28;20118;-82
2021/04/05 08:12:28;;;;;;;34.70;16.48;;;;;;;;;;5099257;28;20136;-81
2021/04/05 08:14:57;;;;;;;45.00;24.13;;;;;;;;;;5104109;28;20013;-81
2021/04/05 08:17:23;;;;;;;46.67;23.35;;;;;;;;;;5100489;28;20063;-82
2021/04/05 08:20:03;;;;;;;41.67;18.05;;;;;;;;;;5105888;28;20024;-81
2021/04/05 08:22:47;;;;;;;35.10;17.15;;;;;;;;;;5096248;28;20020;-82
2021/04/05 08:25:30;;;;;;;44.92;21.38;;;;;;;;;;5109365;28;20032;-82
2021/04/05 08:28:16;;;;;;;40.42;16.80;;;;;;;;;;5105039;28;20103;-81
2021/04/05 08:31:05;;;;;;;26.70;15.30;;;;;;;;;;5098548;28;20052;-82
2021/04/05 08:33:50;;;;;;;30.67;15.02;;;;;;;;;;5047312;28;20055;-82
2021/04/05 08:36:24;;;;;;;30.52;14.43;;;;;;;;;;5108962;28;20096;-82
2021/04/05 08:39:01;;;;;;;38.58;15.35;;;;;;;;;;5094429;28;20455;-82
2021/04/05 08:41:30;;;;;;;41.63;16.90;;;;;;;;;;5110523;28;20387;-82
2021/04/05 08:44:00;;;;;;;36.60;17.27;;;;;;;;;;5104673;28;20024;-82
2021/04/05 08:46:28;;;;;;;29.33;14.98;;;;;;;;;;5101389;28;20016;-82
2021/04/05 08:48:57;;;;;;;42.60;17.95;;;;;;;;;;5105969;28;20030;-82
2021/04/05 08:51:28;;;;;;;35.45;17.17;;;;;;;;;;5091046;28;20165;-82
2021/04/05 08:53:54;;;;;;;;;;;;;;;;;;5104937;28;20031;-82
2021/04/05 08:56:20;;;;;;;34.33;15.68;;;;;;;;;;5101911;28;19916;-82
2021/04/05 08:58:54;;;;;;;33.47;17.08;;;;;;;;;;5105988;28;20059;-82
2021/04/05 09:01:23;;;;;;;30.73;16.10;;;;;;;;;;5104619;28;20092;-82
2021/04/05 09:03:48;;;;;;;37.42;15.70;;;;;;;;;;5100301;28;20102;-83
2021/04/05 09:06:30;;;;;;;36.30;15.70;;;;;;;;;;5097829;28;20034;-82
2021/04/05 09:08:56;;;;;;;37.05;16.73;;;;;;;;;;5107722;28;20031;-82
2021/04/05 09:11:22;;;;;;;33.47;15.73;;;;;;;;;;5105874;28;20495;-82
2021/04/05 09:13:53;;;;;;;41.28;17.08;;;;;;;;;;5103587;28;20023;-82
2021/04/05 09:16:25;;;;;;;43.63;18.27;;;;;;;;;;5096907;28;20483;-82
2021/04/05 09:19:13;;;;;;;27.63;14.50;;;;;;;;;;5097630;28;20035;-83
2021/04/05 09:21:45;;;;;;;38.47;17.02;;;;;;;;;;5077078;28;20104;-82
2021/04/05 09:24:30;;;;;;;33.20;15.52;;;;;;;;;;5105872;28;20030;-82
2021/04/05 09:29:35;;;;;;;32.65;16.50;;;;;;;;;;5110905;27;20351;-89
2021/04/05 09:32:19;;;;;;;29.10;14.75;;;;;;;;;;5114440;28;20036;-89
2021/04/05 09:34:54;;;;;;;28.67;14.40;;;;;;;;;;5107863;28;20027;-89
2021/04/05 09:37:25;;;;;;;34.35;16.10;;;;;;;;;;5112909;28;20031;-88
2021/04/05 09:40:29;;;;;;;39.55;16.67;;;;;;;;;;5113846;28;20030;-89
2021/04/05 09:43:04;;;;;;;34.80;15.70;;;;;;;;;;5041578;28;20176;-89
2021/04/05 09:45:42;;;;;;;34.08;16.80;;;;;;;;;;5038276;28;20047;-89
2021/04/05 09:48:20;;;;;;;33.90;16.10;;;;;;;;;;5083602;28;20040;-89
2021/04/05 09:50:55;;;;;;;36.70;17.38;;;;;;;;;;5107336;28;20017;-89
2021/04/05 09:53:39;;;;;;;34.63;17.85;;;;;;;;;;5120010;28;20020;-89
2021/04/05 09:56:13;;;;;;;36.03;17.80;;;;;;;;;;5109740;28;20039;-89
2021/04/05 09:58:45;;;;;;;37.53;17.60;;;;;;;;;;5104126;28;20633;-89
2021/04/05 10:01:10;;;;;;;;;;;;;;;;;;5092810;28;20115;-88
2021/04/05 10:03:43;;;;;;;39.92;19.52;;;;;;;;;;5115131;28;20279;-89
2021/04/05 10:06:11;;;;;;;36.70;18.52;;;;;;;;;;5110378;28;20023;-89
2021/04/05 10:08:38;;;;;;;31.83;14.95;;;;;;;;;;5111500;28;20239;-90
2021/04/05 10:11:04;;;;;;;27.50;15.55;;;;;;;;;;5115483;28;20015;-88
2021/04/05 10:13:30;;;;;;;34.80;15.07;;;;;;;;;;5105809;28;20428;-89
2021/04/05 10:15:57;;;;;;;34.88;13.95;;;;;;;;;;5114009;28;20012;-89
2021/04/05 10:18:22;;;;;;;29.80;13.68;;;;;;;;;;5107945;28;20028;-89
2021/04/05 10:20:50;;;;;;;34.92;14.60;;;;;;;;;;5114830;28;20023;-89
2021/04/05 10:23:21;;;;;;;29.95;14.38;;;;;;;;;;5109962;28;20482;-89
2021/04/05 10:25:52;;;;;;;30.10;13.85;;;;;;;;;;5115461;28;20092;-89
2021/04/05 10:28:18;;;;;;;29.10;14.48;;;;;;;;;;5108731;28;20084;-88
2021/04/05 10:30:45;;;;;;;37.75;15.85;;;;;;;;;;5109413;28;20073;-89
2021/04/05 10:33:15;;;;;;;32.28;14.15;;;;;;;;;;5112821;28;20029;-89
2021/04/05 10:35:42;;;;;;;30.02;14.52;;;;;;;;;;5110049;28;20027;-90
2021/04/05 10:38:08;;;;;;;27.77;12.48;;;;;;;;;;5114159;28;20552;-89
2021/04/05 10:40:35;;;;;;;27.85;12.77;;;;;;;;;;5099019;28;20023;-89
2021/04/05 10:43:21;;;;;;;35.20;13.13;;;;;;;;;;5101617;28;20532;-89
2021/04/05 10:45:52;;;;;;;26.65;10.88;;;;;;;;;;5052688;28;20037;-88
2021/04/05 10:48:17;;;;;;;28.70;12.48;;;;;;;;;;5104495;28;20031;-89
2021/04/05 10:50:53;;;;;;;25.38;11.85;;;;;;;;;;5092203;28;20070;-89
2021/04/05 10:53:19;;;;;;;26.45;12.45;;;;;;;;;;5105214;28;20020;-87
2021/04/05 10:55:51;;;;;;;27.60;11.98;;;;;;;;;;5092909;28;20066;-88
2021/04/05 10:58:20;;;;;;;21.48;10.88;;;;;;;;;;5094310;28;20028;-89
2021/04/05 11:00:54;;;;;;;20.55;10.57;;;;;;;;;;5086119;28;20425;-88
2021/04/05 11:03:22;;;;;;;23.65;10.93;;;;;;;;;;5080603;28;20068;-88
2021/04/05 11:05:50;;;;;;;20.30;10.63;;;;;;;;;;5087939;28;20023;-89
2021/04/05 11:08:24;;;;;;;33.65;11.85;;;;;;;;;;5094155;28;20032;-90
2021/04/05 11:10:59;;;;;;;25.55;9.85;;;;;;;;;;5099184;28;20020;-90
2021/04/05 11:13:26;;;;;;;26.17;11.57;;;;;;;;;;5099971;28;20045;-90
2021/04/05 11:15:52;;;;;;;24.00;12.32;;;;;;;;;;5077489;28;20565;-89
2021/04/05 11:18:19;;;;;;;25.73;15.27;;;;;;;;;;5078199;28;20036;-91
2021/04/05 11:20:48;;;;;;;23.83;10.85;;;;;;;;;;5082626;28;20016;-92
2021/04/05 11:23:22;;;;;;;23.75;9.30;;;;;;;;;;5075130;28;20056;-92
2021/04/05 11:25:52;;;;;;;27.50;10.57;;;;;;;;;;5075206;28;20028;-91
2021/04/05 11:28:20;;;;;;;20.27;9.63;;;;;;;;;;5074938;28;20039;-91
2021/04/05 11:30:47;;;;;;;20.92;10.88;;;;;;;;;;5075682;28;20035;-92
2021/04/05 11:33:14;;;;;;;19.50;9.02;;;;;;;;;;5077294;28;20063;-93
2021/04/05 11:35:42;;;;;;;20.48;9.38;;;;;;;;;;5084072;28;20012;-92
2021/04/05 11:38:11;;;;;;;20.02;10.27;;;;;;;;;;5095910;28;20039;-92
2021/04/05 11:40:37;;;;;;;26.02;12.35;;;;;;;;;;5095147;28;20020;-93
2021/04/05 11:43:11;;;;;;;19.17;9.65;;;;;;;;;;5095640;28;20078;-91
2021/04/05 11:45:41;;;;;;;18.13;9.63;;;;;;;;;;5096316;28;20024;-91
2021/04/05 11:48:12;;;;;;;17.38;9.45;;;;;;;;;;5103547;28;20110;-91
2021/04/05 11:50:42;;;;;;;27.38;11.52;;;;;;;;;;5115204;28;20047;-91
2021/04/05 11:53:10;;;;;;;28.95;11.23;;;;;;;;;;5115890;28;20027;-92
2021/04/05 11:55:38;;;;;;;18.38;8.45;;;;;;;;;;5116040;28;20026;-91
2021/04/05 11:58:26;;;;;;;23.85;10.35;;;;;;;;;;5115517;28;20023;-92
2021/04/05 12:00:55;;;;;;;18.33;8.43;;;;;;;;;;5074917;28;20036;-91
2021/04/05 12:03:33;;;;;;;17.00;9.10;;;;;;;;;;5094879;28;20040;-91
2021/04/05 12:06:03;;;;;;;18.52;9.00;;;;;;;;;;5087002;28;20025;-90
2021/04/05 12:08:31;;;;;;;16.65;8.70;;;;;;;;;;5074119;28;20020;-90
2021/04/05 12:11:02;;;;;;;19.23;9.48;;;;;;;;;;5074388;28;20029;-90
2021/04/05 12:13:30;;;;;;;20.42;9.43;;;;;;;;;;5075623;28;20115;-90
2021/04/05 12:16:18;;;;;;;21.85;10.07;;;;;;;;;;5073588;28;20386;-91
2021/04/05 12:18:44;;;;;;;19.48;9.52;;;;;;;;;;5073494;28;20020;-90
2021/04/05 12:21:13;;;;;;;17.52;9.20;;;;;;;;;;5072916;28;20035;-91
2021/04/05 12:23:42;;;;;;;23.65;10.32;;;;;;;;;;5073178;28;20029;-89
2021/04/05 12:26:09;;;;;;;14.90;8.90;;;;;;;;;;5072350;28;20029;-90
2021/04/05 12:28:40;;;;;;;16.77;10.32;;;;;;;;;;5073093;28;20051;-91
2021/04/05 12:31:06;;;;;;;25.45;11.32;;;;;;;;;;5073468;28;20048;-90
2021/04/05 12:33:34;;;;;;;18.70;9.25;;;;;;;;;;5072917;28;20024;-90
2021/04/05 12:36:00;;;;;;;21.25;11.52;;;;;;;;;;5073166;28;20021;-91
2021/04/05 12:38:36;;;;;;;21.67;11.75;;;;;;;;;;5092978;28;20039;-90
2021/04/05 12:41:02;;;;;;;17.05;8.98;;;;;;;;;;5093487;28;20030;-90
2021/04/05 12:43:32;;;;;;;25.52;12.00;;;;;;;;;;5092201;28;20565;-92
2021/04/05 12:45:59;;;;;;;28.95;15.65;;;;;;;;;;5077818;28;20039;-93
2021/04/05 12:48:35;;;;;;;26.83;12.90;;;;;;;;;;5082081;28;20024;-94
2021/04/05 12:51:03;;;;;;;29.65;13.55;;;;;;;;;;5087308;28;20046;-93
2021/04/05 12:53:29;;;;;;;26.40;13.57;;;;;;;;;;5089545;28;20099;-94
2021/04/05 12:55:59;;;;;;;30.20;14.20;;;;;;;;;;5090904;28;20023;-94
2021/04/05 12:58:26;;;;;;;27.63;13.18;;;;;;;;;;5092550;28;20019;-94
2021/04/05 13:00:52;;;;;;;24.67;12.85;;;;;;;;;;5084154;28;20034;-93
2021/04/05 13:03:29;;;;;;;24.73;13.52;;;;;;;;;;5074948;28;20480;-93
2021/04/05 13:06:04;;;;;;;23.88;12.68;;;;;;;;;;5074853;28;20024;-91
2021/04/05 13:08:33;;;;;;;20.30;11.35;;;;;;;;;;5075064;28;20435;-93
2021/04/05 13:11:15;;;;;;;22.65;12.02;;;;;;;;;;5076535;28;20021;-93
2021/04/05 13:14:00;;;;;;;23.63;13.93;;;;;;;;;;5074024;28;20028;-91
2021/04/05 13:16:44;;;;;;;22.90;13.63;;;;;;;;;;5073133;28;20097;-91
2021/04/05 13:19:18;;;;;;;20.15;11.38;;;;;;;;;;5073771;28;20058;-92
2021/04/05 13:21:55;;;;;;;29.48;13.32;;;;;;;;;;5075957;28;20032;-92
2021/04/05 13:24:22;;;;;;;20.58;11.65;;;;;;;;;;5076174;28;20091;-93
2021/04/05 13:26:54;;;;;;;23.63;11.48;;;;;;;;;;5076786;28;20074;-93
2021/04/05 13:29:24;;;;;;;19.75;10.27;;;;;;;;;;5082542;28;20031;-93
2021/04/05 13:31:51;;;;;;;16.60;9.77;;;;;;;;;;5079873;28;20039;-92
2021/04/05 13:34:21;;;;;;;15.73;8.77;;;;;;;;;;5077324;28;20112;-93
2021/04/05 13:36:48;;;;;;;18.55;10.43;;;;;;;;;;5080246;28;20025;-92
2021/04/05 13:39:14;;;;;;;16.10;9.45;;;;;;;;;;5076242;28;20052;-92
2021/04/05 13:41:41;;;;;;;19.63;10.40;;;;;;;;;;5075978;28;20025;-92
2021/04/05 13:44:13;;;;;;;19.88;10.20;;;;;;;;;;5074860;28;20020;-92
2021/04/05 13:46:44;;;;;;;27.65;11.55;;;;;;;;;;5074958;28;20119;-93
2021/04/05 13:51:28;;;;;;;15.02;8.93;;;;;;;;;;5104574;27;20350;-79
2021/04/05 13:53:57;;;;;;;17.02;8.63;;;;;;;;;;5090711;28;20064;-80
2021/04/05 13:56:26;;;;;;;16.80;9.38;;;;;;;;;;5091870;28;20016;-79
2021/04/05 13:58:54;;;;;;;15.95;9.02;;;;;;;;;;5088031;28;20086;-78
2021/04/05 14:01:20;;;;;;;14.80;8.80;;;;;;;;;;5085823;28;20476;-78
2021/04/05 14:03:52;;;;;;;14.23;8.55;;;;;;;;;;5084269;28;20036;-80
2021/04/05 14:06:22;;;;;;;11.55;7.15;;;;;;;;;;5086382;28;20028;-80
2021/04/05 14:08:48;;;;;;;13.77;7.28;;;;;;;;;;5086002;28;20020;-80
2021/04/05 14:13:37;;;;;;;10.02;5.50;;;;;;;;;;5102638;27;20347;-80
2021/04/05 14:16:13;;;;;;;11.18;6.53;;;;;;;;;;5098213;28;20036;-80
2021/04/05 14:18:40;;;;;;;20.95;11.43;;;;;;;;;;5098231;28;20024;-80
2021/04/05 14:21:07;;;;;;;15.60;7.95;;;;;;;;;;5099996;28;20357;-81
2021/04/05 14:23:37;;;;;;;7.85;4.70;;;;;;;;;;5097262;28;20471;-81
2021/04/05 14:26:07;;;;;;;8.90;4.13;;;;;;;;;;5098622;28;20013;-81
2021/04/05 14:28:35;;;;;;;9.23;5.07;;;;;;;;;;5100991;28;20261;-80
2021/04/05 14:31:12;;;;;;;10.73;5.50;;;;;;;;;;5105872;28;20016;-80
2021/04/05 14:33:39;;;;;;;15.52;7.10;;;;;;;;;;5095645;28;20032;-80
2021/04/05 14:36:06;;;;;;;6.50;3.60;;;;;;;;;;5108855;28;20047;-79
2021/04/05 14:38:38;;;;;;;15.10;6.43;;;;;;;;;;5102093;28;20047;-80
2021/04/05 14:41:13;;;;;;;6.63;3.25;;;;;;;;;;5097785;28;20362;-80
2021/04/05 14:46:01;;;;;;;2.95;1.13;;;;;;;;;;5099313;27;20394;-79
2021/04/05 14:48:27;;;;;;;3.10;1.40;;;;;;;;;;5091098;28;20298;-80
2021/04/05 14:50:52;;;;;;;2.72;1.05;;;;;;;;;;5086949;28;20024;-80
2021/04/05 14:53:38;;;;;;;2.72;1.08;;;;;;;;;;5090214;28;20024;-79
2021/04/05 14:56:05;;;;;;;4.57;1.10;;;;;;;;;;5086865;28;20494;-79
2021/04/05 14:58:31;;;;;;;4.53;1.50;;;;;;;;;;5091184;28;20413;-80
2021/04/05 15:01:20;;;;;;;17.27;6.47;;;;;;;;;;5088618;28;20618;-80
2021/04/05 15:04:18;;;;;;;5.63;2.22;;;;;;;;;;5089951;28;20481;-79
2021/04/05 15:06:50;;;;;;;5.43;2.55;;;;;;;;;;5065800;28;20133;-79
2021/04/05 15:09:23;;;;;;;2.97;0.90;;;;;;;;;;5083739;28;20074;-80
2021/04/05 15:11:52;;;;;;;1.55;0.85;;;;;;;;;;5086652;28;20063;-79
2021/04/05 15:14:19;;;;;;;2.63;0.93;;;;;;;;;;5086266;28;20028;-80
2021/04/05 15:16:45;;;;;;;2.72;1.08;;;;;;;;;;5085555;28;20027;-80
2021/04/05 15:19:12;;;;;;;9.82;2.60;;;;;;;;;;5087545;28;20029;-81
2021/04/05 15:21:39;;;;;;;6.65;2.92;;;;;;;;;;5087341;28;20031;-81
2021/04/05 15:24:06;;;;;;;5.75;2.50;;;;;;;;;;5082682;28;20028;-80
2021/04/05 15:26:33;;;;;;;5.28;2.15;;;;;;;;;;5080759;28;20039;-81
2021/04/05 15:29:10;;;;;;;8.40;2.20;;;;;;;;;;5082416;28;20040;-81
2021/04/05 15:31:36;;;;;;;14.18;3.85;;;;;;;;;;5083802;28;20020;-80
2021/04/05 15:34:09;;;;;;;3.72;1.30;;;;;;;;;;5084778;28;20082;-80
2021/04/05 15:36:35;;;;;;;4.82;1.98;;;;;;;;;;5085954;28;20028;-80
2021/04/05 15:39:01;;;;;;;6.43;2.72;;;;;;;;;;5087960;28;20034;-80
2021/04/05 15:41:31;;;;;;;18.27;8.18;;;;;;;;;;5085812;28;20024;-80
2021/04/05 15:44:02;;;;;;;21.75;10.00;;;;;;;;;;5088345;28;20031;-79
2021/04/05 15:46:36;;;;;;;7.22;3.17;;;;;;;;;;5090209;28;20053;-79
2021/04/05 15:49:08;;;;;;;4.03;2.22;;;;;;;;;;5087911;28;20027;-80
2021/04/05 15:51:39;;;;;;;4.53;2.20;;;;;;;;;;5089123;28;20052;-79
2021/04/05 15:54:24;;;;;;;21.05;8.60;;;;;;;;;;5089036;28;20047;-80
2021/04/05 15:59:20;;;;;;;11.52;4.65;;;;;;;;;;5109239;27;20362;-80
2021/04/05 16:01:51;;;;;;;17.42;7.75;;;;;;;;;;5102650;28;20035;-80
2021/04/05 16:04:19;;;;;;;16.98;6.68;;;;;;;;;;5099816;28;20020;-80
2021/04/05 16:06:50;;;;;;;6.60;2.47;;;;;;;;;;5098465;28;20480;-80
2021/04/05 16:09:18;;;;;;;3.90;1.45;;;;;;;;;;5090947;28;20028;-81
2021/04/05 16:11:49;;;;;;;5.55;2.22;;;;;;;;;;5089209;28;20079;-80
2021/04/05 16:14:19;;;;;;;10.90;5.10;;;;;;;;;;5089486;28;20016;-81
2021/04/05 16:17:05;;;;;;;12.23;5.03;;;;;;;;;;5091649;28;20476;-79
2021/04/05 16:19:50;;;;;;;10.55;3.63;;;;;;;;;;5097372;28;20487;-81
2021/04/05 16:22:21;;;;;;;9.55;5.05;;;;;;;;;;5091564;28;20476;-80
2021/04/05 16:24:51;;;;;;;7.45;3.83;;;;;;;;;;5091450;28;20030;-81
2021/04/05 16:27:22;;;;;;;22.10;8.82;;;;;;;;;;5099938;28;20058;-81
2021/04/05 16:29:51;;;;;;;37.70;19.10;;;;;;;;;;5096631;28;20509;-81
2021/04/05 16:32:20;;;;;;;20.52;9.25;;;;;;;;;;5089551;28;20082;-80
2021/04/05 16:34:47;;;;;;;44.17;21.55;;;;;;;;;;5089584;28;20479;-81
2021/04/05 16:37:23;;;;;;;30.95;16.40;;;;;;;;;;5099921;28;20017;-81
2021/04/05 16:39:49;;;;;;;12.98;6.75;;;;;;;;;;5093681;28;20024;-83
2021/04/05 16:42:18;;;;;;;18.15;10.43;;;;;;;;;;5092471;28;20024;-81
2021/04/05 16:44:53;;;;;;;25.38;15.70;;;;;;;;;;5084455;28;20048;-81
2021/04/05 16:47:20;;;;;;;27.55;16.02;;;;;;;;;;5097192;28;20590;-81
2021/04/05 16:49:48;;;;;;;41.08;21.15;;;;;;;;;;5095196;28;20028;-81
2021/04/05 16:52:34;;;;;;;41.22;22.40;;;;;;;;;;5092697;28;20028;-82
2021/04/05 16:55:18;;;;;;;23.75;13.85;;;;;;;;;;5093205;28;20067;-81
2021/04/05 16:57:45;;;;;;;16.55;8.27;;;;;;;;;;5094134;28;20016;-81
2021/04/05 17:00:12;;;;;;;18.23;8.85;;;;;;;;;;5087388;28;20021;-81
2021/04/05 17:02:52;;;;;;;14.50;6.20;;;;;;;;;;5091114;28;20073;-81
2021/04/05 17:05:25;;;;;;;20.02;9.77;;;;;;;;;;5091579;28;20016;-81
2021/04/05 17:08:08;;;;;;;26.73;10.90;;;;;;;;;;5060651;22;20489;-85
2021/04/05 17:10:35;;;;;;;29.85;12.68;;;;;;;;;;5027872;28;20029;-85
2021/04/05 17:13:02;;;;;;;27.55;12.05;;;;;;;;;;5028484;28;20108;-84
2021/04/05 17:15:28;;;;;;;16.70;7.55;;;;;;;;;;5029761;28;20087;-86
2021/04/05 17:17:58;;;;;;;15.65;6.97;;;;;;;;;;5044585;28;20388;-84
2021/04/05 17:20:32;;;;;;;14.35;6.45;;;;;;;;;;5036604;28;20026;-85
2021/04/05 17:22:57;;;;;;;13.45;6.53;;;;;;;;;;5045629;28;20188;-85
2021/04/05 17:25:32;;;;;;;8.77;3.65;;;;;;;;;;5047996;28;20368;-86
2021/04/05 17:27:59;;;;;;;14.43;5.35;;;;;;;;;;5040018;28;20033;-84
2021/04/05 17:30:32;;;;;;;40.22;13.75;;;;;;;;;;5041968;28;20053;-85
2021/04/05 17:33:05;;;;;;;20.00;6.80;;;;;;;;;;5039243;28;20067;-86
2021/04/05 17:35:32;;;;;;;31.80;11.32;;;;;;;;;;5038825;28;20080;-86
2021/04/05 17:38:09;;;;;;;22.92;10.73;;;;;;;;;;5043574;28;20013;-85
2021/04/05 17:40:36;;;;;;;14.25;5.40;;;;;;;;;;5046155;28;20017;-86
2021/04/05 17:43:04;;;;;;;15.57;5.45;;;;;;;;;;5035857;28;20052;-85
2021/04/05 17:45:46;;;;;;;14.65;5.97;;;;;;;;;;5042032;28;20013;-85
2021/04/05 17:51:44;;;;;;;11.48;4.65;;;;;;;;;;5042738;28;20476;-85
2021/04/05 17:57:46;;;;;;;12.20;4.63;;;;;;;;;;4980390;28;20041;-85
2021/04/05 18:01:03;;;;;;;18.23;6.72;;;;;;;;;;5003107;28;20034;-86
2021/04/05 18:10:14;;;;;;;15.05;7.50;;;;;;;;;;4974351;28;20038;-86
2021/04/05 18:12:58;;;;;;;53.45;21.67;;;;;;;;;;4994122;28;20650;-86
2021/04/05 18:15:41;;;;;;;53.90;22.08;;;;;;;;;;5036836;28;20051;-87
2021/04/05 18:18:40;;;;;;;36.17;17.13;;;;;;;;;;5041286;28;20029;-86
2021/04/05 18:23:52;;;;;;;23.33;5.18;;;;;;;;;;5085588;28;20357;-86
2021/04/05 18:26:37;;;;;;;11.07;3.65;;;;;;;;;;5054623;28;20036;-86
2021/04/05 18:29:19;;;;;;;7.68;3.42;;;;;;;;;;5053239;28;20420;-86
2021/04/05 18:31:57;;;;;;;7.95;3.05;;;;;;;;;;5043220;28;20095;-86
2021/04/05 18:34:30;;;;;;;9.90;3.50;;;;;;;;;;5054323;28;20095;-86
2021/04/05 18:37:15;;;;;;;7.05;3.63;;;;;;;;;;5054978;28;20017;-86
2021/04/05 18:39:43;;;;;;;14.82;5.65;;;;;;;;;;5051542;28;20071;-86
2021/04/05 18:42:09;;;;;;;14.60;5.25;;;;;;;;;;5056178;28;20017;-86
2021/04/05 18:44:37;;;;;;;9.20;4.35;;;;;;;;;;5056189;28;20064;-86
2021/04/05 18:47:05;;;;;;;5.85;2.25;;;;;;;;;;5043733;28;20025;-86
2021/04/05 18:49:36;;;;;;;7.13;2.72;;;;;;;;;;5054095;28;20026;-86
2021/04/05 18:52:53;;;;;;;6.82;3.13;;;;;;;;;;5056601;28;20567;-85
2021/04/05 18:55:20;;;;;;;7.63;2.38;;;;;;;;;;5023760;28;20550;-86
2021/04/05 18:58:03;;;;;;;6.00;2.60;;;;;;;;;;5034131;28;20083;-86
2021/04/05 19:00:55;;;;;;;6.60;3.45;;;;;;;;;;5048896;28;20407;-86
2021/04/05 19:03:20;;;;;;;;;;;;;;;;;;5053566;28;20025;-86
2021/04/05 19:05:46;;;;;;;25.17;12.38;;;;;;;;;;5050559;28;19936;-86
2021/04/05 19:08:32;;;;;;;17.33;9.40;;;;;;;;;;5057531;28;20068;-85
2021/04/05 19:11:35;;;;;;;11.88;5.82;;;;;;;;;;5054215;28;20067;-89
2021/04/05 19:14:19;;;;;;;13.35;3.42;;;;;;;;;;5028167;28;20421;-87
2021/04/05 19:16:44;;;;;;;9.10;4.13;;;;;;;;;;5062673;28;20072;-90
2021/04/05 19:19:19;;;;;;;4.97;2.67;;;;;;;;;;5048847;28;20396;-90
2021/04/05 19:21:57;;;;;;;30.02;15.57;;;;;;;;;;5042133;28;20509;-89
2021/04/05 19:24:41;;;;;;;19.60;11.05;;;;;;;;;;5038202;28;20025;-87
2021/04/05 19:27:19;;;;;;;16.30;8.52;;;;;;;;;;5047369;28;20025;-87
2021/04/05 19:30:04;;;;;;;9.40;3.80;;;;;;;;;;5038284;28;20037;-87
2021/04/05 19:32:35;;;;;;;6.22;2.78;;;;;;;;;;5048641;28;20025;-88
2021/04/05 19:35:19;;;;;;;6.38;2.05;;;;;;;;;;5028381;28;20461;-86
2021/04/05 19:37:53;;;;;;;4.05;2.03;;;;;;;;;;5037373;28;20358;-86
2021/04/05 19:40:24;;;;;;;7.45;3.05;;;;;;;;;;5032838;28;20029;-86
2021/04/05 19:43:06;;;;;;;7.55;3.40;;;;;;;;;;5034251;28;20060;-87
2021/04/05 19:45:44;;;;;;;8.38;2.63;;;;;;;;;;5033824;28;20167;-87
2021/04/05 19:48:29;;;;;;;8.35;4.32;;;;;;;;;;5044338;28;20079;-86
2021/04/05 19:51:19;;;;;;;7.07;2.75;;;;;;;;;;5047116;28;20044;-86
2021/04/05 19:54:01;;;;;;;9.20;3.90;;;;;;;;;;5015951;28;20501;-87
2021/04/05 19:56:33;;;;;;;4.50;2.42;;;;;;;;;;5029370;28;20033;-86
2021/04/05 19:59:14;;;;;;;5.80;2.25;;;;;;;;;;5041469;28;20025;-86
2021/04/05 20:01:41;;;;;;;8.50;2.78;;;;;;;;;;5026816;28;20728;-86
2021/04/05 20:04:13;;;;;;;6.75;2.67;;;;;;;;;;5033015;28;20053;-86
2021/04/05 20:07:03;;;;;;;6.72;2.00;;;;;;;;;;5030998;28;20025;-87
2021/04/05 20:09:46;;;;;;;7.00;2.20;;;;;;;;;;5040454;28;20087;-87
2021/04/05 20:12:20;;;;;;;7.30;2.10;;;;;;;;;;5043146;28;20044;-86
2021/04/05 20:14:56;;;;;;;6.50;2.50;;;;;;;;;;5034170;28;20025;-87
2021/04/05 20:17:34;;;;;;;6.18;2.83;;;;;;;;;;5034970;28;20112;-86
2021/04/05 20:20:09;;;;;;;8.93;1.98;;;;;;;;;;5027092;28;20051;-86
2021/04/05 20:22:38;;;;;;;9.63;2.35;;;;;;;;;;5029694;28;20045;-86
2021/04/05 20:25:03;;;;;;;8.07;3.42;;;;;;;;;;5035347;28;20084;-86
2021/04/05 20:27:52;;;;;;;8.23;2.75;;;;;;;;;;5037894;28;20017;-86